Hlavní strana
METAR-TAF:

METAR-TAF

Letiště :

Hagåtña, Guam, Spojené státy americké

zeměpisná šířka: 13-29N, zeměpisná délka: 144-48E, výška: 91 m

Aktuální stav počasí

Zpráva byla vytvořena před 1 hodinou a 1 minutami, v 22:54 UTC
Východní vítr 13 kt
Teplota 29°C
Vlhkost vzduchu 84%
Tlak 1014 hPa
Viditelnost: 16.1 km
Skoro jasno ve výšce 2100 ft
Skoro jasno ve výšce 2800 ft

METAR: PGUM 212254Z 08013KT 10SM FEW021 FEW028 29/26 A2995 RMK AO2 SLP132 T02940256

Čas: 09:55 (23:55 UTC)

Předpověď počasí

Zpráva byla vytvořena před 24 minutami, v 23:31 UTC
Předpověď platná od 22 v 00 UTC do 23 v 06 UTC
Východní vítr 12 kt
Viditelnost: 10 km
Skoro jasno ve výšce 2000 ft
Polojasno ve výšce 4000 ft

TAF: PGUM 212331Z 2200/2306 08012KT P6SM FEW020 SCT040

Stav a předpovědi počasí z více než 4 000 letišť (zprávy METAR a TAF).

Červené a žluté tečky na mapě představují dostupné meteorologické stanice.

Když kurzor umístíte na tečku, zobrazí se název stanice.

Pak kliknutím zobrazíte stav a předpověď počasí.

Chcete-li změnit mapu, kliknutím na zelené tlačítko se znaménkem +mapu přiblížíte, kliknutím na zelené tlačítko se znaménkem – mapu oddálíte a kliknutím na zelené šipky přejdete na sousední mapy.


METAR-TAF: